Wednesday, January 17, 2018, 2:58 PM GMT
Back to Local

CWIS, Charlevoix CS , Que.

Location: , , Canada Lat: 47.283
Local Time: 2:58 PM GMT (14:58 GMT) Lon: -70.633
Time Zone: GMT Elev: 2358 ft

Show me the last for .
Show Decoded

2018-01-17 14:00 METAR CWIS 171400Z AUTO 21004KT M13/M14 RMK AO1 SOG 23 8009 SLP245 T11301136 =
2018-01-17 13:00 METAR CWIS 171300Z AUTO 21005KT M13/M14 RMK AO1 SOG 22 8003 SLP249 T11341141 =
2018-01-17 12:00 METAR CWIS 171200Z AUTO 22004KT M13/M14 RMK AO1 SOG 22 6004 SLP252 T11331139 =
2018-01-17 11:00 METAR CWIS 171100Z AUTO 22003KT M15/M16 RMK AO1 SOG 22 5005 SLP257 T11521160 =
2018-01-17 10:00 METAR CWIS 171000Z AUTO 22002KT M16/M16 RMK AO1 SOG 22 8008 SLP254 T11561164 =
2018-01-17 09:00 METAR CWIS 170900Z AUTO 21003KT M16/M17 RMK AO1 SOG 22 8003 SLP258 T11611171 =
2018-01-17 08:00 METAR CWIS 170800Z AUTO 22004KT M16/M17 RMK AO1 SOG 22 6005 SLP260 T11581166 =
2018-01-17 06:00 METAR CWIS 170600Z AUTO 20002KT M16/M17 RMK AO1 SOG 21 8009 SLP261 T11631172 =
2018-01-17 05:00 METAR CWIS 170500Z AUTO 20003KT M15/M16 RMK AO1 SOG 22 6006 SLP265 T11541162 =
2018-01-17 04:00 METAR CWIS 170400Z AUTO 19003KT M16/M17 RMK AO1 SOG 22 8007 SLP269 T11591168 =
2018-01-17 03:00 METAR CWIS 170300Z AUTO 19003KT M17/M18 RMK AO1 SOG 22 6008 SLP275 T11671176 =
2018-01-17 02:00 METAR CWIS 170200Z AUTO 19003KT M17/M18 RMK AO1 SOG 22 7008 SLP279 T11741175 =
2018-01-17 01:00 METAR CWIS 170100Z AUTO 18004KT M17/M18 RMK AO1 SOG 22 8005 SLP282 T11721182 =
2018-01-17 00:00 METAR CWIS 170000Z AUTO 18003KT M17/M18 RMK AO1 SOG 22 0004 SLP286 T11691179 =
2018-01-16 23:00 METAR CWIS 162300Z AUTO 21001KT M18/M19 RMK AO1 SOG 22 3006 SLP289 T11751186 =
2018-01-16 22:00 METAR CWIS 162200Z AUTO 20003KT M17/M18 RMK AO1 SOG 22 3006 SLP287 T11661176 =
2018-01-16 21:00 METAR CWIS 162100Z AUTO 19003KT M15/M16 RMK AO1 SOG 22 6001 SLP280 T11541163 =
2018-01-16 20:00 METAR CWIS 162000Z AUTO 21004KT M15/M16 RMK AO1 SOG 22 5005 SLP280 T11491157 =
2018-01-16 18:00 METAR CWIS 161800Z AUTO 21003KT M15/M16 RMK AO1 SOG 22 6023 SLP280 T11481157 =
2018-01-16 16:00 METAR CWIS 161600Z AUTO 20002KT M17/M18 RMK AO1 SOG 22 8009 SLP301 T11681179 =
2018-01-16 15:00 METAR CWIS 161500Z AUTO 06001KT M18/M19 RMK AO1 SOG 22 5005 SLP310 T11811193 =

Support USWX by starting your Amazon purchase here.